Time;durP1;ratioP1;P1;durP2;ratioP2;P2;SDS_P1;SDS_P2;PMS_P1;PMS_P2;Temp;Humidity;BMP_temperature;BMP_pressure;BME280_temperature;BME280_humidity;BME280_pressure;Samples;Min_cycle;Max_cycle;Signal;HPM_P1;HPM_P2
2022/10/08 00:00:52;;;;;;;6.93;4.03;;;12.50;99.90;;;;;;4850554;29;20105;-55
2022/10/08 00:03:21;;;;;;;14.10;5.03;;;12.50;99.90;;;;;;4849025;29;20049;-55
2022/10/08 00:06:24;;;;;;;5.95;3.90;;;12.50;99.90;;;;;;4851477;29;20084;-57
2022/10/08 00:08:57;;;;;;;9.13;4.65;;;12.50;99.90;;;;;;4854067;29;20052;-54
2022/10/08 00:11:27;;;;;;;5.95;3.75;;;12.50;99.90;;;;;;4856268;29;20125;-57
2022/10/08 00:13:54;;;;;;;5.63;3.63;;;12.60;99.90;;;;;;4853973;29;20652;-55
2022/10/08 00:16:32;;;;;;;8.05;4.20;;;12.50;99.90;;;;;;4851577;29;20049;-52
2022/10/08 00:19:02;;;;;;;6.07;4.20;;;12.50;99.90;;;;;;4855411;29;20117;-54
2022/10/08 00:21:35;;;;;;;4.15;3.75;;;12.60;99.90;;;;;;4852580;29;20041;-52
2022/10/08 00:24:04;;;;;;;7.93;3.50;;;12.50;99.90;;;;;;4852281;29;20486;-52
2022/10/08 00:26:33;;;;;;;7.07;4.18;;;12.50;99.90;;;;;;4850552;29;20419;-55
2022/10/08 00:29:06;;;;;;;4.78;4.05;;;12.50;99.90;;;;;;4853232;29;20044;-55
2022/10/08 00:31:36;;;;;;;6.22;3.47;;;12.50;99.90;;;;;;4850274;29;20119;-57
2022/10/08 00:34:08;;;;;;;6.93;4.72;;;12.50;99.90;;;;;;4855414;29;20791;-55
2022/10/08 00:36:37;;;;;;;6.00;4.30;;;12.40;99.90;;;;;;4852804;29;20157;-54
2022/10/08 00:39:10;;;;;;;4.60;3.53;;;12.40;99.90;;;;;;4852869;29;20281;-56
2022/10/08 00:41:38;;;;;;;7.78;4.57;;;12.40;99.90;;;;;;4851758;29;20048;-57
2022/10/08 00:44:42;;;;;;;4.47;3.92;;;12.40;99.90;;;;;;4852620;29;20095;-54
2022/10/08 00:47:18;;;;;;;8.27;4.10;;;12.30;99.90;;;;;;4853184;29;20062;-56
2022/10/08 00:49:48;;;;;;;4.45;3.45;;;12.30;99.90;;;;;;4853211;29;20049;-56
2022/10/08 00:52:17;;;;;;;6.80;4.28;;;12.30;99.90;;;;;;4851294;29;20049;-57
2022/10/08 00:54:44;;;;;;;5.45;3.70;;;12.40;99.90;;;;;;4849300;29;20044;-57
2022/10/08 00:57:11;;;;;;;5.85;3.80;;;12.40;99.90;;;;;;4851889;29;20049;-55
2022/10/08 00:59:38;;;;;;;5.05;3.80;;;12.40;99.90;;;;;;4850877;29;20044;-59
2022/10/08 01:02:07;;;;;;;9.52;3.72;;;12.40;99.90;;;;;;4849987;29;20048;-54
2022/10/08 01:04:36;;;;;;;4.07;3.47;;;12.40;99.90;;;;;;4849186;29;20070;-56
2022/10/08 01:07:25;;;;;;;4.93;3.67;;;12.40;99.90;;;;;;4852163;29;20119;-56
2022/10/08 01:10:19;;;;;;;4.57;3.03;;;12.40;99.90;;;;;;4855131;29;20051;-54
2022/10/08 01:13:14;;;;;;;9.13;4.20;;;12.40;99.90;;;;;;4850073;29;20277;-55
2022/10/08 01:15:54;;;;;;;9.07;4.22;;;12.40;99.90;;;;;;4848413;29;20057;-53
2022/10/08 01:18:32;;;;;;;11.35;4.70;;;12.40;99.90;;;;;;4850214;29;20440;-54
2022/10/08 01:21:12;;;;;;;6.43;4.93;;;12.40;99.90;;;;;;4852469;29;20804;-55
2022/10/08 01:24:06;;;;;;;7.10;4.10;;;12.30;99.90;;;;;;4850750;29;20278;-54
2022/10/08 01:26:47;;;;;;;7.47;4.50;;;12.30;99.90;;;;;;4852530;29;20882;-51
2022/10/08 01:29:27;;;;;;;6.70;4.47;;;12.30;99.90;;;;;;4850021;29;20058;-55
2022/10/08 01:32:00;;;;;;;13.27;4.95;;;12.20;99.90;;;;;;4848127;29;20325;-56
2022/10/08 01:34:36;;;;;;;10.30;5.07;;;12.20;99.90;;;;;;4855458;29;20048;-55
2022/10/08 01:37:05;;;;;;;10.50;5.25;;;12.20;99.90;;;;;;4849703;29;20076;-55
2022/10/08 01:39:34;;;;;;;10.65;5.00;;;12.20;99.90;;;;;;4851568;29;20052;-52
2022/10/08 01:42:04;;;;;;;7.13;5.03;;;12.20;99.90;;;;;;4850163;29;20055;-55
2022/10/08 01:44:33;;;;;;;4.95;4.45;;;12.20;99.90;;;;;;4849555;29;20518;-55
2022/10/08 01:47:04;;;;;;;6.07;4.50;;;12.10;99.90;;;;;;4848983;29;20042;-53
2022/10/08 01:49:38;;;;;;;9.93;4.72;;;12.10;99.90;;;;;;4848872;29;20500;-56
2022/10/08 01:52:15;;;;;;;5.72;4.68;;;12.20;99.90;;;;;;4851246;29;20045;-51
2022/10/08 01:54:44;;;;;;;6.57;4.10;;;12.20;99.90;;;;;;4847242;29;20055;-54
2022/10/08 01:57:11;;;;;;;7.32;4.60;;;12.20;99.90;;;;;;4848130;29;20140;-57
2022/10/08 01:59:44;;;;;;;;;;;12.20;99.90;;;;;;4853081;29;20452;-54
2022/10/08 02:02:14;;;;;;;10.75;4.75;;;12.20;99.90;;;;;;4850852;29;20046;-55
2022/10/08 02:04:41;;;;;;;4.53;4.10;;;12.20;99.90;;;;;;4847894;29;20067;-56
2022/10/08 02:07:10;;;;;;;5.72;4.93;;;12.30;99.90;;;;;;4849469;29;20320;-54
2022/10/08 02:09:46;;;;;;;5.50;4.57;;;12.30;99.90;;;;;;4852647;29;20127;-54
2022/10/08 02:12:13;;;;;;;5.53;4.35;;;12.30;99.90;;;;;;4844919;29;20192;-56
2022/10/08 02:14:45;;;;;;;6.03;4.38;;;12.30;99.90;;;;;;4850058;29;20055;-53
2022/10/08 02:17:49;;;;;;;7.55;4.68;;;12.30;99.90;;;;;;4853406;29;20192;-57
2022/10/08 02:20:22;;;;;;;5.35;4.75;;;12.30;99.90;;;;;;4848557;29;20682;-55
2022/10/08 02:22:58;;;;;;;6.15;5.05;;;12.30;99.90;;;;;;4853911;29;20045;-56
2022/10/08 02:25:35;;;;;;;11.73;5.28;;;12.30;99.90;;;;;;4851343;29;20122;-52
2022/10/08 02:28:14;;;;;;;4.65;4.25;;;12.30;99.90;;;;;;4851045;29;20389;-55
2022/10/08 02:30:54;;;;;;;9.15;4.50;;;12.30;99.90;;;;;;4853187;29;20459;-57
2022/10/08 02:33:48;;;;;;;5.10;3.88;;;12.30;99.90;;;;;;4848059;29;20139;-55
2022/10/08 02:36:21;;;;;;;7.07;5.22;;;12.30;99.90;;;;;;4842822;29;20157;-55
2022/10/08 02:38:55;;;;;;;12.02;5.03;;;12.30;99.90;;;;;;4849739;29;20461;-56
2022/10/08 02:41:27;;;;;;;8.98;4.57;;;12.30;99.90;;;;;;4848571;29;20134;-54
2022/10/08 02:43:58;;;;;;;16.50;5.80;;;12.30;99.90;;;;;;4846280;29;20121;-55
2022/10/08 02:46:28;;;;;;;11.43;4.90;;;12.30;99.90;;;;;;4852539;29;20113;-56
2022/10/08 02:49:04;;;;;;;7.90;4.97;;;12.30;99.90;;;;;;4853013;29;20083;-56
2022/10/08 02:51:35;;;;;;;10.40;4.80;;;12.30;99.90;;;;;;4851922;29;20121;-54
2022/10/08 02:54:05;;;;;;;10.18;5.50;;;12.30;99.90;;;;;;4850722;29;20033;-55
2022/10/08 02:56:50;;;;;;;12.38;5.18;;;12.30;99.90;;;;;;4846824;29;20047;-54
2022/10/08 02:59:19;;;;;;;8.85;4.85;;;12.30;99.90;;;;;;4851269;29;20544;-52
2022/10/08 03:01:56;;;;;;;8.98;5.10;;;12.30;99.90;;;;;;4846610;29;20479;-56
2022/10/08 03:04:35;;;;;;;5.10;4.57;;;12.30;99.90;;;;;;4830780;29;20343;-56
2022/10/08 03:07:02;;;;;;;6.47;4.55;;;12.30;99.90;;;;;;4849928;29;20160;-55
2022/10/08 03:09:37;;;;;;;6.80;5.10;;;12.30;99.90;;;;;;4836790;29;20041;-53
2022/10/08 03:12:05;;;;;;;8.43;5.68;;;12.40;99.90;;;;;;4854360;29;20100;-56
2022/10/08 03:14:37;;;;;;;7.18;5.47;;;12.40;99.90;;;;;;4852040;29;20415;-53
2022/10/08 03:17:06;;;;;;;9.48;5.40;;;12.40;99.90;;;;;;4853099;29;20153;-54
2022/10/08 03:19:34;;;;;;;8.70;5.93;;;12.40;99.90;;;;;;4852018;29;20044;-53
2022/10/08 03:22:01;;;;;;;6.32;5.65;;;12.40;99.90;;;;;;4851952;29;20068;-56
2022/10/08 03:24:28;;;;;;;6.55;5.28;;;12.50;99.90;;;;;;4855281;29;20048;-52
2022/10/08 03:26:55;;;;;;;7.93;4.50;;;12.40;99.90;;;;;;4854345;29;20499;-54
2022/10/08 03:29:21;;;;;;;6.22;4.88;;;12.50;99.90;;;;;;4857749;29;20119;-55
2022/10/08 03:31:48;;;;;;;;;;;12.50;99.90;;;;;;4849836;29;20060;-54
2022/10/08 03:34:15;;;;;;;16.13;6.45;;;12.50;99.90;;;;;;4854834;29;19996;-55
2022/10/08 03:36:42;;;;;;;10.55;7.55;;;12.50;99.90;;;;;;4853755;29;20049;-54
2022/10/08 03:39:10;;;;;;;9.75;5.55;;;12.50;99.90;;;;;;4857480;29;20459;-55
2022/10/08 03:41:37;;;;;;;6.60;5.85;;;12.50;99.90;;;;;;4856881;29;20059;-53
2022/10/08 03:44:06;;;;;;;;;;;12.60;99.90;;;;;;4854214;29;20079;-56
2022/10/08 03:46:32;;;;;;;9.35;5.60;;;12.50;99.90;;;;;;4852031;29;19928;-54
2022/10/08 03:48:59;;;;;;;;;;;12.60;99.90;;;;;;4851120;29;20052;-55
2022/10/08 03:51:26;;;;;;;9.85;5.85;;;12.50;99.90;;;;;;4851100;29;19928;-51
2022/10/08 03:53:53;;;;;;;6.18;5.55;;;12.50;99.90;;;;;;4848292;29;20045;-54
2022/10/08 03:56:23;;;;;;;;;;;12.50;99.90;;;;;;4848408;29;20068;-54
2022/10/08 03:58:55;;;;;;;12.52;5.32;;;12.50;99.90;;;;;;4849889;29;20014;-53
2022/10/08 04:01:24;;;;;;;8.65;5.60;;;12.50;99.90;;;;;;4849569;29;20562;-51
2022/10/08 04:03:51;;;;;;;8.35;5.40;;;12.60;99.90;;;;;;4846195;29;20069;-54
2022/10/08 04:06:19;;;;;;;7.45;5.25;;;12.60;99.90;;;;;;4855146;29;20131;-55
2022/10/08 04:08:45;;;;;;;8.82;4.85;;;12.60;99.90;;;;;;4849069;29;20041;-54
2022/10/08 04:11:14;;;;;;;7.63;5.25;;;12.60;99.90;;;;;;4850763;29;20050;-55
2022/10/08 04:13:42;;;;;;;12.02;5.75;;;12.60;99.90;;;;;;4851136;29;20049;-52
2022/10/08 04:16:12;;;;;;;9.25;6.72;;;12.60;99.90;;;;;;4851992;29;20703;-53
2022/10/08 04:18:39;;;;;;;5.93;5.35;;;12.60;99.90;;;;;;4835440;29;20136;-53
2022/10/08 04:21:09;;;;;;;9.13;6.32;;;12.60;99.90;;;;;;4848194;29;20056;-54
2022/10/08 04:23:37;;;;;;;7.68;5.43;;;12.60;99.90;;;;;;4850205;29;20060;-54
2022/10/08 04:26:05;;;;;;;6.00;5.40;;;12.60;99.90;;;;;;4846799;29;20045;-54
2022/10/08 04:28:37;;;;;;;8.63;5.82;;;12.70;99.90;;;;;;4850795;29;20064;-54
2022/10/08 04:31:08;;;;;;;7.80;5.88;;;12.70;99.90;;;;;;4847761;29;20271;-54
2022/10/08 04:33:36;;;;;;;10.10;6.50;;;12.70;99.90;;;;;;4848680;29;20057;-52
2022/10/08 04:36:13;;;;;;;11.20;7.03;;;12.70;99.90;;;;;;4854023;29;20274;-54
2022/10/08 04:38:44;;;;;;;9.68;5.93;;;12.80;99.90;;;;;;4847130;29;20249;-54
2022/10/08 04:41:13;;;;;;;7.90;5.28;;;12.80;99.90;;;;;;4850669;29;20049;-55
2022/10/08 04:43:42;;;;;;;9.57;6.13;;;12.80;99.90;;;;;;4846058;29;20071;-55
2022/10/08 04:46:11;;;;;;;7.18;5.80;;;12.80;99.90;;;;;;4854141;29;20990;-55
2022/10/08 04:48:38;;;;;;;5.93;5.10;;;12.80;99.90;;;;;;4852905;29;20326;-56
2022/10/08 04:51:06;;;;;;;9.07;6.40;;;12.90;99.90;;;;;;4850336;29;20559;-54
2022/10/08 04:53:37;;;;;;;7.72;5.95;;;12.80;99.90;;;;;;4854732;29;20523;-54
2022/10/08 04:56:15;;;;;;;8.48;6.55;;;12.90;99.90;;;;;;4851702;29;20049;-53
2022/10/08 04:58:43;;;;;;;13.70;6.80;;;12.90;99.90;;;;;;4854002;29;20055;-55
2022/10/08 05:01:13;;;;;;;6.47;5.80;;;12.90;99.90;;;;;;4853084;29;20501;-54
2022/10/08 05:03:43;;;;;;;9.32;5.55;;;12.90;99.90;;;;;;4848723;29;20422;-55
2022/10/08 05:06:10;;;;;;;7.78;5.53;;;12.90;99.90;;;;;;4849961;29;20491;-54
2022/10/08 05:08:37;;;;;;;5.90;5.32;;;12.90;99.90;;;;;;4851218;29;20189;-55
2022/10/08 05:11:04;;;;;;;6.40;5.07;;;12.90;99.90;;;;;;4853278;29;20159;-53
2022/10/08 05:13:31;;;;;;;7.13;5.40;;;12.90;99.90;;;;;;4852012;29;20184;-54
2022/10/08 05:16:09;;;;;;;15.82;7.43;;;12.80;99.90;;;;;;4853306;29;20522;-55
2022/10/08 05:18:37;;;;;;;6.32;5.50;;;12.80;99.90;;;;;;4855911;29;20116;-56
2022/10/08 05:21:11;;;;;;;7.28;5.75;;;12.80;99.90;;;;;;4850501;29;20427;-54
2022/10/08 05:23:38;;;;;;;11.70;6.72;;;12.80;99.90;;;;;;4851055;29;20056;-54
2022/10/08 05:26:17;;;;;;;7.85;7.07;;;12.80;99.90;;;;;;4851294;29;20356;-54
2022/10/08 05:28:48;;;;;;;11.48;7.03;;;12.70;99.90;;;;;;4851559;29;20045;-56
2022/10/08 05:31:16;;;;;;;10.60;6.63;;;12.70;99.90;;;;;;4853987;29;20101;-54
2022/10/08 05:33:43;;;;;;;12.02;7.28;;;12.70;99.90;;;;;;4854426;29;20366;-56
2022/10/08 05:36:22;;;;;;;9.00;6.95;;;12.70;99.90;;;;;;4851954;29;20057;-56
2022/10/08 05:38:50;;;;;;;17.92;8.07;;;12.70;99.90;;;;;;4851415;29;20075;-54
2022/10/08 05:41:18;;;;;;;12.98;7.88;;;12.70;99.90;;;;;;4852789;29;20048;-54
2022/10/08 05:43:46;;;;;;;11.98;7.65;;;12.70;99.90;;;;;;4850666;29;20129;-53
2022/10/08 05:46:14;;;;;;;10.40;7.10;;;12.70;99.90;;;;;;4852512;29;20745;-53
2022/10/08 05:48:41;;;;;;;16.33;6.47;;;12.80;99.90;;;;;;4851866;29;20471;-53
2022/10/08 05:51:13;;;;;;;10.07;7.85;;;12.80;99.90;;;;;;4849109;29;20598;-55
2022/10/08 05:53:42;;;;;;;12.02;7.63;;;12.80;99.90;;;;;;4852851;29;20432;-54
2022/10/08 05:56:11;;;;;;;9.23;7.13;;;12.80;99.90;;;;;;4854847;29;20475;-56
2022/10/08 05:58:39;;;;;;;9.13;7.05;;;12.80;99.90;;;;;;4851510;29;20057;-55
2022/10/08 06:01:11;;;;;;;6.82;6.05;;;12.80;99.90;;;;;;4851014;29;20049;-55
2022/10/08 06:03:38;;;;;;;10.25;7.07;;;12.80;99.90;;;;;;4851112;29;20037;-52
2022/10/08 06:06:07;;;;;;;8.40;6.25;;;12.90;99.90;;;;;;4852549;29;20049;-52
2022/10/08 06:08:35;;;;;;;7.78;6.95;;;12.90;99.90;;;;;;4850164;29;20040;-54
2022/10/08 06:11:04;;;;;;;15.13;7.00;;;12.90;99.90;;;;;;4850981;29;20041;-54
2022/10/08 06:13:31;;;;;;;18.38;6.80;;;12.90;99.90;;;;;;4850172;29;20529;-52
2022/10/08 06:16:00;;;;;;;8.52;6.15;;;13.00;99.90;;;;;;4848646;29;20089;-55
2022/10/08 06:18:29;;;;;;;12.02;7.10;;;13.00;99.90;;;;;;4856937;29;20068;-50
2022/10/08 06:21:00;;;;;;;8.18;5.97;;;13.00;99.90;;;;;;4850064;29;20510;-49
2022/10/08 06:23:26;;;;;;;10.23;6.57;;;13.00;99.90;;;;;;4849301;29;20147;-55
2022/10/08 06:25:53;;;;;;;11.90;6.85;;;13.00;99.90;;;;;;4853447;29;20044;-56
2022/10/08 06:28:20;;;;;;;9.13;7.18;;;13.00;99.90;;;;;;4854498;29;20044;-54
2022/10/08 06:30:46;;;;;;;;;;;13.00;99.90;;;;;;4850626;29;20087;-54
2022/10/08 06:33:15;;;;;;;7.82;6.72;;;13.00;99.90;;;;;;4852013;29;20453;-54
2022/10/08 06:35:42;;;;;;;14.38;8.10;;;13.00;99.90;;;;;;4849589;29;20084;-55
2022/10/08 06:38:09;;;;;;;;;;;13.10;99.90;;;;;;4851557;29;20915;-54
2022/10/08 06:40:38;;;;;;;9.13;7.10;;;13.10;99.90;;;;;;4852245;29;20094;-53
2022/10/08 06:43:16;;;;;;;7.05;6.32;;;13.20;99.90;;;;;;4848253;29;20067;-55
2022/10/08 06:45:44;;;;;;;13.25;7.70;;;13.20;99.90;;;;;;4852545;29;20365;-55
2022/10/08 06:48:12;;;;;;;8.10;6.18;;;13.20;99.90;;;;;;4853160;29;20055;-52
2022/10/08 06:50:39;;;;;;;7.93;6.18;;;13.20;99.90;;;;;;4847774;29;20723;-53
2022/10/08 06:53:08;;;;;;;12.23;7.43;;;13.30;99.90;;;;;;4851931;29;20057;-52
2022/10/08 06:55:35;;;;;;;8.40;7.07;;;13.30;99.90;;;;;;4849004;29;20053;-55
2022/10/08 06:58:03;;;;;;;7.90;6.70;;;13.40;99.90;;;;;;4845920;29;20049;-52
2022/10/08 07:00:30;;;;;;;8.10;6.95;;;13.40;99.90;;;;;;4853142;29;20045;-54
2022/10/08 07:02:57;;;;;;;9.32;6.40;;;13.50;99.90;;;;;;4850376;29;20116;-52
2022/10/08 07:05:24;;;;;;;10.93;6.28;;;13.50;99.90;;;;;;4848128;29;20047;-56
2022/10/08 07:07:50;;;;;;;;;;;13.60;99.90;;;;;;4852200;29;20440;-54
2022/10/08 07:10:17;;;;;;;10.95;6.90;;;13.60;99.90;;;;;;4850706;29;20027;-55
2022/10/08 07:12:44;;;;;;;;;;;13.70;99.90;;;;;;4844699;29;20049;-55
2022/10/08 07:15:11;;;;;;;10.90;7.07;;;13.70;99.90;;;;;;4846818;29;20043;-55
2022/10/08 07:17:38;;;;;;;;;;;13.80;99.90;;;;;;4851897;29;20956;-54
2022/10/08 07:20:05;;;;;;;7.95;6.45;;;13.80;99.90;;;;;;4849950;29;19990;-53
2022/10/08 07:22:32;;;;;;;8.15;6.88;;;13.80;99.90;;;;;;4845091;29;20193;-54
2022/10/08 07:25:00;;;;;;;9.32;7.63;;;13.90;99.90;;;;;;4854463;29;20127;-55
2022/10/08 07:27:27;;;;;;;7.90;6.18;;;13.90;99.90;;;;;;4848128;29;20041;-54
2022/10/08 07:29:53;;;;;;;;;;;14.00;99.90;;;;;;4848516;29;20445;-54
2022/10/08 07:32:20;;;;;;;10.18;7.35;;;14.10;99.90;;;;;;4849029;29;20480;-53
2022/10/08 07:34:47;;;;;;;;;;;14.10;99.90;;;;;;4849429;29;20639;-56
2022/10/08 07:37:13;;;;;;;11.90;7.50;;;14.20;99.90;;;;;;4818279;29;19927;-57
2022/10/08 07:39:40;;;;;;;;;;;14.20;99.90;;;;;;4801483;29;20558;-56
2022/10/08 07:42:07;;;;;;;6.88;5.63;;;14.30;99.90;;;;;;4802363;29;20360;-56
2022/10/08 07:44:34;;;;;;;;;;;14.30;99.90;;;;;;4804935;29;20749;-56
2022/10/08 07:47:00;;;;;;;16.77;8.43;;;14.40;99.90;;;;;;4803502;29;20312;-57
2022/10/08 07:49:27;;;;;;;;;;;14.40;99.90;;;;;;4804922;29;20320;-56
2022/10/08 07:51:54;;;;;;;12.43;9.93;;;14.50;99.90;;;;;;4811339;29;20230;-58
2022/10/08 07:54:21;;;;;;;13.70;8.75;;;14.50;99.90;;;;;;4807311;29;20665;-55
2022/10/08 07:56:48;;;;;;;13.40;8.55;;;14.50;99.90;;;;;;4808428;29;20208;-56
2022/10/08 07:59:15;;;;;;;;;;;14.60;99.90;;;;;;4809759;29;20579;-56
2022/10/08 08:01:43;;;;;;;11.35;8.55;;;14.60;99.90;;;;;;4790923;29;20221;-56
2022/10/08 08:04:10;;;;;;;8.70;6.93;;;14.60;99.90;;;;;;4802868;29;20728;-54
2022/10/08 08:06:41;;;;;;;10.15;6.95;;;14.70;99.90;;;;;;4792733;29;20057;-56
2022/10/08 08:09:09;;;;;;;16.02;7.72;;;14.70;99.90;;;;;;4808510;29;20374;-56
2022/10/08 08:11:36;;;;;;;10.85;7.85;;;14.80;99.90;;;;;;4774876;29;20381;-58
2022/10/08 08:14:03;;;;;;;15.50;8.05;;;14.80;99.90;;;;;;4808984;29;20338;-57
2022/10/08 08:16:30;;;;;;;;;;;14.90;99.90;;;;;;4804647;29;20416;-57
2022/10/08 08:19:00;;;;;;;10.55;9.43;;;14.90;99.90;;;;;;4810263;29;19928;-57
2022/10/08 08:21:33;;;;;;;14.55;10.38;;;15.00;99.90;;;;;;4811631;29;20469;-56
2022/10/08 08:24:10;;;;;;;11.57;9.85;;;15.00;99.90;;;;;;4807851;29;20155;-61
2022/10/08 08:26:39;;;;;;;10.25;9.15;;;15.10;99.90;;;;;;4807355;29;20370;-57
2022/10/08 08:29:09;;;;;;;13.40;8.55;;;15.10;99.90;;;;;;4810190;29;20151;-57
2022/10/08 08:31:39;;;;;;;10.88;8.23;;;15.20;99.90;;;;;;4811615;29;20583;-60
2022/10/08 08:34:09;;;;;;;11.20;7.63;;;15.20;99.90;;;;;;4806964;29;20271;-61
2022/10/08 08:36:39;;;;;;;15.75;8.98;;;15.20;99.90;;;;;;4803691;29;20332;-58
2022/10/08 08:39:12;;;;;;;12.18;7.47;;;15.30;99.90;;;;;;4809542;29;20058;-58
2022/10/08 08:42:01;;;;;;;11.13;7.53;;;15.30;99.90;;;;;;4809935;29;20456;-57
2022/10/08 08:44:43;;;;;;;10.82;8.30;;;15.30;99.90;;;;;;4806706;29;20370;-56
2022/10/08 08:47:27;;;;;;;13.50;7.78;;;15.30;99.90;;;;;;4789721;29;20544;-57
2022/10/08 08:50:27;;;;;;;23.95;10.20;;;15.40;99.90;;;;;;4813032;29;20049;-58
2022/10/08 08:52:55;;;;;;;10.88;7.60;;;15.50;99.90;;;;;;4800628;29;20371;-57
2022/10/08 08:55:46;;;;;;;14.75;8.05;;;15.60;99.90;;;;;;4809528;29;20390;-57
2022/10/08 08:58:57;;;;;;;13.30;8.40;;;15.60;99.90;;;;;;4812336;29;20684;-56
2022/10/08 09:01:34;;;;;;;12.23;8.32;;;15.70;99.90;;;;;;4808617;29;20155;-56
2022/10/08 09:04:14;;;;;;;13.80;9.27;;;15.80;99.90;;;;;;4808037;29;20052;-57
2022/10/08 09:06:42;;;;;;;16.40;9.43;;;15.90;99.90;;;;;;4807235;29;20217;-57
2022/10/08 09:09:23;;;;;;;18.40;9.45;;;16.00;99.90;;;;;;4811378;29;20319;-57
2022/10/08 09:11:50;;;;;;;28.23;10.30;;;16.10;99.90;;;;;;4803933;29;20345;-58
2022/10/08 09:14:39;;;;;;;14.57;9.50;;;16.10;99.90;;;;;;4806074;29;20338;-58
2022/10/08 09:17:31;;;;;;;10.52;8.35;;;16.20;99.90;;;;;;4807372;29;20048;-58
2022/10/08 09:19:59;;;;;;;12.20;8.23;;;16.30;99.90;;;;;;4797795;29;20052;-61
2022/10/08 09:22:34;;;;;;;15.80;8.82;;;16.30;99.90;;;;;;4814126;29;20048;-58
2022/10/08 09:25:06;;;;;;;11.48;8.45;;;16.40;99.90;;;;;;4817895;29;20591;-56
2022/10/08 09:27:59;;;;;;;11.95;9.10;;;16.40;99.90;;;;;;4829775;29;20049;-60
2022/10/08 09:30:35;;;;;;;12.23;8.20;;;16.50;99.90;;;;;;4849501;29;20064;-56
2022/10/08 09:33:15;;;;;;;12.18;7.32;;;16.50;99.90;;;;;;4850833;29;20051;-54
2022/10/08 09:35:52;;;;;;;14.23;9.27;;;16.50;99.90;;;;;;4853368;29;20052;-55
2022/10/08 09:38:23;;;;;;;12.82;7.63;;;16.60;99.90;;;;;;4850262;29;20144;-56
2022/10/08 09:41:04;;;;;;;8.93;7.35;;;16.60;99.90;;;;;;4849778;29;20093;-55
2022/10/08 09:43:32;;;;;;;10.93;7.13;;;16.60;99.90;;;;;;4850347;29;20414;-52
2022/10/08 09:46:04;;;;;;;8.23;6.15;;;16.60;99.90;;;;;;4851110;29;20818;-54
2022/10/08 09:48:31;;;;;;;15.90;8.18;;;16.60;99.90;;;;;;4855604;29;20143;-56
2022/10/08 09:51:05;;;;;;;;;;;16.70;99.90;;;;;;4855985;29;20447;-51
2022/10/08 09:53:43;;;;;;;8.27;6.15;;;16.70;99.90;;;;;;4853673;29;20038;-56
2022/10/08 09:56:12;;;;;;;12.07;7.10;;;16.70;99.90;;;;;;4853499;29;20097;-52
2022/10/08 09:58:58;;;;;;;11.45;7.32;;;16.80;99.90;;;;;;4855209;29;20559;-55
2022/10/08 10:01:26;;;;;;;6.00;4.95;;;16.80;99.90;;;;;;4851544;29;20124;-52
2022/10/08 10:03:55;;;;;;;10.73;6.30;;;16.80;99.90;;;;;;4852676;29;20127;-55
2022/10/08 10:06:45;;;;;;;11.45;7.05;;;16.90;99.90;;;;;;4845539;29;20760;-54
2022/10/08 10:09:42;;;;;;;13.50;7.47;;;16.90;99.90;;;;;;4850219;29;20040;-54
2022/10/08 10:12:16;;;;;;;9.38;5.30;;;17.00;99.90;;;;;;4851423;29;20703;-53
2022/10/08 10:15:09;;;;;;;14.15;7.82;;;17.00;99.90;;;;;;4847564;29;20045;-54
2022/10/08 10:18:03;;;;;;;8.60;6.90;;;17.10;99.90;;;;;;4850426;29;20052;-53
2022/10/08 10:20:41;;;;;;;13.65;7.32;;;17.20;99.90;;;;;;4851688;29;20677;-54
2022/10/08 10:23:17;;;;;;;15.40;8.70;;;17.20;99.90;;;;;;4852550;29;20045;-56
2022/10/08 10:25:53;;;;;;;14.57;8.25;;;17.30;99.90;;;;;;4849849;29;20144;-57
2022/10/08 10:28:56;;;;;;;9.88;8.02;;;17.30;99.90;;;;;;4852765;29;20140;-53
2022/10/08 10:31:34;;;;;;;15.00;8.80;;;17.30;99.90;;;;;;4847945;29;20131;-57
2022/10/08 10:34:08;;;;;;;11.60;9.15;;;17.40;99.90;;;;;;4848692;29;20255;-54
2022/10/08 10:36:41;;;;;;;17.45;9.70;;;17.40;99.90;;;;;;4847620;29;20040;-55
2022/10/08 10:39:37;;;;;;;8.90;7.60;;;17.50;99.90;;;;;;4848395;29;20053;-57
2022/10/08 10:42:28;;;;;;;9.75;8.02;;;17.50;99.90;;;;;;4853530;29;20041;-53
2022/10/08 10:45:17;;;;;;;12.88;8.35;;;17.60;99.90;;;;;;4847158;29;20587;-58
2022/10/08 10:47:44;;;;;;;8.20;7.32;;;17.70;99.90;;;;;;4855776;29;20466;-51
2022/10/08 10:50:15;;;;;;;11.45;8.05;;;17.80;99.90;;;;;;4856709;29;20088;-56
2022/10/08 10:53:14;;;;;;;14.40;8.77;;;17.80;99.90;;;;;;4849869;29;20045;-55
2022/10/08 10:56:08;;;;;;;14.18;8.27;;;17.80;99.90;;;;;;4854409;29;20290;-56
2022/10/08 10:59:16;;;;;;;11.60;8.18;;;17.80;99.90;;;;;;4851998;29;20094;-56
2022/10/08 11:02:07;;;;;;;14.27;9.63;;;17.90;99.90;;;;;;4852452;29;20101;-55
2022/10/08 11:05:16;;;;;;;12.48;9.57;;;17.90;99.90;;;;;;4850396;29;20434;-56
2022/10/08 11:07:45;;;;;;;11.35;7.82;;;17.80;99.90;;;;;;4823842;29;20052;-55
2022/10/08 11:10:31;;;;;;;7.95;6.53;;;17.80;99.90;;;;;;4845521;29;20342;-56
2022/10/08 11:13:09;;;;;;;15.85;8.98;;;17.80;99.90;;;;;;4847527;29;20045;-53
2022/10/08 11:16:13;;;;;;;17.52;10.20;;;17.80;99.90;;;;;;4847734;29;20140;-53
2022/10/08 11:18:50;;;;;;;16.75;9.07;;;17.70;99.90;;;;;;4852314;29;20472;-55
2022/10/08 11:21:35;;;;;;;10.82;8.63;;;17.60;99.90;;;;;;4848344;29;20699;-55
2022/10/08 11:24:16;;;;;;;12.00;8.52;;;17.60;99.90;;;;;;4848714;29;20081;-55
2022/10/08 11:27:11;;;;;;;13.65;8.32;;;17.50;99.90;;;;;;4836395;29;20463;-54
2022/10/08 11:29:54;;;;;;;16.40;10.93;;;17.50;99.90;;;;;;4851676;29;20879;-56
2022/10/08 11:32:21;;;;;;;14.30;8.93;;;17.40;99.90;;;;;;4847627;29;20053;-53
2022/10/08 11:35:01;;;;;;;16.02;8.45;;;17.40;99.90;;;;;;4852242;29;20071;-56
2022/10/08 11:37:42;;;;;;;15.48;9.10;;;17.40;99.90;;;;;;4854228;29;20059;-55
2022/10/08 11:40:47;;;;;;;10.40;8.75;;;17.30;99.90;;;;;;4819609;29;20698;-58
2022/10/08 11:43:26;;;;;;;13.07;8.93;;;17.20;99.90;;;;;;4816293;29;20390;-57
2022/10/08 11:46:29;;;;;;;12.88;10.13;;;17.20;99.90;;;;;;4822256;29;20134;-55
2022/10/08 11:49:01;;;;;;;12.93;10.13;;;17.10;99.90;;;;;;4818570;29;20048;-56
2022/10/08 11:51:31;;;;;;;22.50;10.57;;;17.00;99.90;;;;;;4819554;29;20045;-57
2022/10/08 11:54:25;;;;;;;14.00;9.48;;;17.00;99.90;;;;;;4819598;29;20784;-56
2022/10/08 11:57:17;;;;;;;16.38;9.00;;;17.00;99.90;;;;;;4817894;29;20201;-55
2022/10/08 11:59:54;;;;;;;15.13;9.18;;;16.90;99.90;;;;;;4820571;29;20477;-58
2022/10/08 12:02:24;;;;;;;18.50;12.07;;;16.80;99.90;;;;;;4820515;29;20710;-53
2022/10/08 12:04:53;;;;;;;12.38;9.55;;;16.80;99.90;;;;;;4815165;29;20198;-56
2022/10/08 12:07:32;;;;;;;13.05;10.02;;;16.70;99.90;;;;;;4821816;29;20343;-55
2022/10/08 12:10:05;;;;;;;14.50;8.30;;;16.60;99.90;;;;;;4816632;29;20048;-58
2022/10/08 12:12:49;;;;;;;15.75;10.27;;;16.50;99.90;;;;;;4817898;29;20315;-56
2022/10/08 12:15:23;;;;;;;23.40;12.00;;;16.50;99.90;;;;;;4818369;29;20289;-56
2022/10/08 12:17:54;;;;;;;16.13;11.40;;;16.40;99.90;;;;;;4818519;29;20050;-54
2022/10/08 12:20:31;;;;;;;24.42;12.40;;;16.40;99.90;;;;;;4818943;29;20156;-56
2022/10/08 12:23:01;;;;;;;18.73;12.23;;;16.30;99.90;;;;;;4816364;29;20049;-55
2022/10/08 12:25:31;;;;;;;15.77;11.00;;;16.30;99.90;;;;;;4814392;29;20518;-56
2022/10/08 12:28:26;;;;;;;21.60;13.57;;;16.20;99.90;;;;;;4816848;29;20177;-55
2022/10/08 12:30:59;;;;;;;14.05;10.35;;;16.30;99.90;;;;;;4817614;29;20372;-57
2022/10/08 12:33:28;;;;;;;17.88;12.82;;;16.20;99.90;;;;;;4816848;29;20555;-56
2022/10/08 12:36:09;;;;;;;10.88;8.68;;;16.20;99.90;;;;;;4816579;29;20304;-57
2022/10/08 12:39:04;;;;;;;18.95;13.73;;;16.20;99.90;;;;;;4817954;29;20384;-58
2022/10/08 12:41:46;;;;;;;19.52;12.73;;;16.20;99.90;;;;;;4819472;29;20071;-58
2022/10/08 12:44:28;;;;;;;15.85;13.40;;;16.10;99.90;;;;;;4819571;29;20063;-57
2022/10/08 12:47:07;;;;;;;24.45;13.25;;;16.10;99.90;;;;;;4815639;29;20055;-59
2022/10/08 12:49:43;;;;;;;18.10;11.75;;;16.00;99.90;;;;;;4817397;29;20271;-57
2022/10/08 12:52:17;;;;;;;18.98;10.48;;;16.00;99.90;;;;;;4813646;29;20076;-57
2022/10/08 12:54:54;;;;;;;20.85;12.88;;;16.00;99.90;;;;;;4816092;29;20435;-57
2022/10/08 12:57:36;;;;;;;17.93;13.47;;;16.10;99.90;;;;;;4815350;29;20045;-57
2022/10/08 13:00:09;;;;;;;20.42;12.18;;;16.10;99.90;;;;;;4823705;29;20053;-56
2022/10/08 13:02:39;;;;;;;17.80;12.05;;;16.00;99.90;;;;;;4813735;29;20329;-57
2022/10/08 13:05:30;;;;;;;15.00;10.65;;;16.00;99.90;;;;;;4817318;29;20424;-57
2022/10/08 13:07:57;;;;;;;22.60;11.13;;;15.90;99.90;;;;;;4817438;29;20056;-56
2022/10/08 13:10:27;;;;;;;20.85;11.35;;;15.90;99.90;;;;;;4817793;29;20443;-56
2022/10/08 13:13:32;;;;;;;15.73;8.85;;;15.80;99.90;;;;;;4813670;29;20502;-55
2022/10/08 13:16:23;;;;;;;13.32;7.90;;;15.70;99.90;;;;;;4810596;29;20483;-55
2022/10/08 13:18:53;;;;;;;14.57;7.78;;;15.60;99.90;;;;;;4815548;29;20412;-56
2022/10/08 13:21:33;;;;;;;15.50;7.72;;;15.60;99.90;;;;;;4818321;29;20548;-59